Friday, October 31, 2014
09:56 UTC
  |  Log In   |  Register Free
Airport Search:

Chanute Martin Johnson Airport
(KCNU)

Chanute Martin Johnson Airport Diagram
No Airport Diagram Available

FAA data valid effective September 18, 2014 - November 13, 2014 (unless otherwise noted).

 
 
 
 
 
 
 
 
 
 
 
 
 
 

Current Aviation Weather for Chanute Martin Johnson Airport (KCNU)

The most recent METAR observation for KCNU was updated at: 0914
METAR Summary (Translated METAR)
KCNU
310852Z AUTO 34009KT 10SM CLR 08/04 A3028 RMK AO2 SLP248 T00780044 52017
KPPF
310852Z AUTO 35011KT 10SM CLR 08/05 A3028 RMK AO2 SLP248 T00830050 51017
(20.3 nm SW from KCNU)
KIDP
310855Z AUTO 35015G20KT 10SM CLR 08/04 A3028 RMK AO2
(33.7 nm SW from KCNU)
TAF Summary (Translated TAF)
KCNU
310522Z 3106/0106 35010KT P6SM SKC FM310900 36014G20KT P6SM BKN022 FM311500 01017G25KT P6SM SCT020 FM312300 03008KT P6SM SKC
  Airport Weather Conditions for KCNU

 Current Weather at CNU
46° F
Fair
North winds at 10.4 mph
CNU NOAA Radar

Pressure: 30.28 in
Humidity: 79%
Wind: North at 10.4 MPH (9 KT)
Dew Point: 39.9°F
Visibility: 10.00 mi


Airport Weather Forecast for KCNU

Translated METAR and TAF for KCNU
Translated METAR for KCNU (0951 UTC 31 October 2014)
found at http://aviationweather.gov/adds/metars/
 
METAR text: KCNU 310852Z AUTO 34009KT 10SM CLR 08/04 A3028 RMK AO2 SLP248 T00780044 52017
Conditions at: KCNU (CHANUTE , KS, US) observed 0852 UTC 31 October 2014
Temperature: 7.8°C (46°F)
Dewpoint: 4.4°C (40°F) [RH = 79%]
Pressure (altimeter): 30.28 inches Hg (1025.5 mb)
[Sea-level pressure: 1024.8 mb]
Winds: from the NNW (340 degrees) at 10 MPH (9 knots; 4.7 m/s)
Visibility: 10 or more miles (16+ km)
Ceiling: at least 12,000 feet AGL
Clouds: sky clear below 12,000 feet AGL
Weather: automated observation with no human augmentation;
there may or may not be significant weather present at this time
Translated TAF for KCNU
Forecast for: KCNU (CHANUTE , KS, US)
TAF Text: KCNU 310522Z 3106/0106 35010KT P6SM SKC
Forecast period: 0600 to 0900 UTC 31 October 2014
Forecast type: FROM: standard forecast or significant change
Winds: from the N (350 degrees) at 12 MPH (10 knots; 5.2 m/s)
Visibility: 6 or more miles (10+ km)
Clouds: clear skies
Weather: no significant weather forecast for this period
TAF Text: FM310900 36014G20KT P6SM BKN022
Forecast period: 0900 to 1500 UTC 31 October 2014
Forecast type: FROM: standard forecast or significant change
Winds: from the N (360 degrees) at 16 MPH (14 knots; 7.3 m/s)
gusting to 23 MPH (20 knots; 10.4 m/s)
Visibility: 6 or more miles (10+ km)
Ceiling: 2200 feet AGL
Clouds: broken clouds at 2200 feet AGL
Weather: no significant weather forecast for this period
TAF Text: FM311500 01017G25KT P6SM SCT020
Forecast period: 1500 to 2300 UTC 31 October 2014
Forecast type: FROM: standard forecast or significant change
Winds: from the N (10 degrees) at 20 MPH (17 knots; 8.8 m/s)
gusting to 29 MPH (25 knots; 13.0 m/s)
Visibility: 6 or more miles (10+ km)
Clouds: scattered clouds at 2000 feet AGL
Weather: no significant weather forecast for this period
TAF Text: FM312300 03008KT P6SM SKC
Forecast period: 2300 UTC 31 October 2014 to 0600 UTC 01 November 2014
Forecast type: FROM: standard forecast or significant change
Winds: from the NNE (30 degrees) at 9 MPH (8 knots; 4.2 m/s)
Visibility: 6 or more miles (10+ km)
Clouds: clear skies
Weather: no significant weather forecast for this period

Find All Airport Services Find A Hotel Find A Rental Car Find A Golf Course Find A Restaurant $100 Hamburger



FBO's on the Field
FBO Company Facility Photos Services Transportation Aviation Fuel Prices: Prices include tax
Catering Weather Repair Courtesy Rental Type 100LL JetA JetA+ MOGAS 8087
 
City of Chanute

This FBO has not yet been rated
FS:Phillips 66
Last Updated: Oct-03
Login to update fuel prices
SS:
Contact City of ChanuteMore FBO Information
 
Add another FBO Facility Photos Catering Weather Repair Courtesy Rental Type 100LL JetA JetA+ MOGAS 8087
Services Transportation Aviation Fuel Prices: Prices include tax


model-print
model-print
model-print
model-print